sensor_id;sensor_type;location;lat;lon;timestamp;pressure;altitude;pressure_sealevel;temperature;humidity
22647;BME280;11490;42.726;23.268;2023-10-13T04:31:17;95723.91;;;10.28;88.94
22647;BME280;11490;42.726;23.268;2023-10-13T04:34:02;95733.66;;;10.34;88.67
22647;BME280;11490;42.726;23.268;2023-10-13T04:36:28;95701.84;;;9.78;91.45
22647;BME280;11490;42.726;23.268;2023-10-13T04:38:55;95703.03;;;10.00;89.94
22647;BME280;11490;42.726;23.268;2023-10-13T04:41:40;95733.44;;;10.18;90.29
22647;BME280;11490;42.726;23.268;2023-10-13T04:44:18;95731.72;;;10.23;89.80
22647;BME280;11490;42.726;23.268;2023-10-13T04:47:05;95724.00;;;10.15;89.02
22647;BME280;11490;42.726;23.268;2023-10-13T04:49:55;95759.00;;;10.44;88.63
22647;BME280;11490;42.726;23.268;2023-10-13T05:05:52;95723.81;;;9.92;91.10
22647;BME280;11490;42.726;23.268;2023-10-13T05:08:56;95781.13;;;10.01;93.25
22647;BME280;11490;42.726;23.268;2023-10-13T05:12:00;95730.97;;;9.98;92.78
22647;BME280;11490;42.726;23.268;2023-10-13T05:14:44;95781.22;;;10.37;91.81
22647;BME280;11490;42.726;23.268;2023-10-13T05:17:28;95724.34;;;9.82;93.37
22647;BME280;11490;42.726;23.268;2023-10-13T05:20:11;95745.69;;;10.00;94.45
22647;BME280;11490;42.726;23.268;2023-10-13T05:23:40;95809.88;;;10.60;93.17
22647;BME280;11490;42.726;23.268;2023-10-13T05:26:42;95806.53;;;10.65;92.66
22647;BME280;11490;42.726;23.268;2023-10-13T05:29:28;95754.84;;;10.29;93.30
22647;BME280;11490;42.726;23.268;2023-10-13T05:32:12;95801.94;;;10.72;93.39
22647;BME280;11490;42.726;23.268;2023-10-13T05:34:56;95776.81;;;10.61;92.63
22647;BME280;11490;42.726;23.268;2023-10-13T05:53:11;95763.75;;;11.19;90.82
22647;BME280;11490;42.726;23.268;2023-10-13T05:55:36;95822.00;;;11.82;90.67
22647;BME280;11490;42.726;23.268;2023-10-13T05:58:20;95796.19;;;12.46;87.56
22647;BME280;11490;42.726;23.268;2023-10-13T06:01:04;95814.59;;;13.34;84.58
22647;BME280;11490;42.726;23.268;2023-10-13T06:03:48;95820.34;;;13.71;82.02
22647;BME280;11490;42.726;23.268;2023-10-13T06:06:31;95799.84;;;14.49;79.41
22647;BME280;11490;42.726;23.268;2023-10-13T06:09:15;95780.88;;;15.21;76.14
22647;BME280;11490;42.726;23.268;2023-10-13T06:11:59;95809.31;;;15.65;74.16
22647;BME280;11490;42.726;23.268;2023-10-13T06:14:47;95794.38;;;15.79;73.56
22647;BME280;11490;42.726;23.268;2023-10-13T06:17:30;95814.00;;;16.07;72.75
22647;BME280;11490;42.726;23.268;2023-10-13T06:20:14;95822.16;;;16.17;73.13
22647;BME280;11490;42.726;23.268;2023-10-13T06:22:58;95844.16;;;16.09;73.10
22647;BME280;11490;42.726;23.268;2023-10-13T06:25:42;95829.16;;;16.18;72.24
22647;BME280;11490;42.726;23.268;2023-10-13T06:28:26;95825.69;;;15.91;74.09
22647;BME280;11490;42.726;23.268;2023-10-13T06:31:07;95822.16;;;16.17;73.80
22647;BME280;11490;42.726;23.268;2023-10-13T06:33:36;95836.31;;;16.39;72.81
22647;BME280;11490;42.726;23.268;2023-10-13T06:36:10;95848.84;;;16.24;72.93
22647;BME280;11490;42.726;23.268;2023-10-13T06:38:36;95852.94;;;16.63;71.98
22647;BME280;11490;42.726;23.268;2023-10-13T06:41:02;95841.38;;;16.68;71.94
22647;BME280;11490;42.726;23.268;2023-10-13T06:43:32;95830.69;;;16.41;72.08
22647;BME280;11490;42.726;23.268;2023-10-13T06:45:58;95854.56;;;16.32;72.77
22647;BME280;11490;42.726;23.268;2023-10-13T06:48:28;95852.88;;;16.26;72.90
22647;BME280;11490;42.726;23.268;2023-10-13T06:50:58;95850.69;;;15.16;75.31
22647;BME280;11490;42.726;23.268;2023-10-13T06:53:29;95850.88;;;15.31;77.15
22647;BME280;11490;42.726;23.268;2023-10-13T06:55:55;95837.94;;;15.06;76.83
22647;BME280;11490;42.726;23.268;2023-10-13T06:58:24;95843.16;;;15.18;77.25
22647;BME280;11490;42.726;23.268;2023-10-13T07:00:50;95820.00;;;15.12;77.79
22647;BME280;11490;42.726;23.268;2023-10-13T07:03:20;95823.16;;;16.11;73.94
22647;BME280;11490;42.726;23.268;2023-10-13T07:05:46;95802.06;;;15.98;73.88
22647;BME280;11490;42.726;23.268;2023-10-13T07:08:15;95813.50;;;16.10;73.33
22647;BME280;11490;42.726;23.268;2023-10-13T07:10:52;95826.50;;;16.23;73.97
22647;BME280;11490;42.726;23.268;2023-10-13T07:13:27;95823.94;;;15.74;74.74
22647;BME280;11490;42.726;23.268;2023-10-13T07:15:53;95833.72;;;15.37;77.09
22647;BME280;11490;42.726;23.268;2023-10-13T07:18:25;95832.25;;;15.24;77.28
22647;BME280;11490;42.726;23.268;2023-10-13T07:20:50;95838.91;;;15.44;77.13
22647;BME280;11490;42.726;23.268;2023-10-13T07:23:16;95843.06;;;15.08;77.70
22647;BME280;11490;42.726;23.268;2023-10-13T07:25:55;95834.75;;;15.31;77.78
22647;BME280;11490;42.726;23.268;2023-10-13T07:28:28;95841.09;;;15.47;77.75
22647;BME280;11490;42.726;23.268;2023-10-13T07:30:54;95834.97;;;15.51;77.49
22647;BME280;11490;42.726;23.268;2023-10-13T07:33:19;95811.28;;;15.48;77.20
22647;BME280;11490;42.726;23.268;2023-10-13T07:35:45;95829.88;;;15.28;77.46
22647;BME280;11490;42.726;23.268;2023-10-13T07:38:15;95820.25;;;15.10;78.95
22647;BME280;11490;42.726;23.268;2023-10-13T07:40:41;95812.97;;;15.54;78.42
22647;BME280;11490;42.726;23.268;2023-10-13T07:43:07;95818.50;;;15.69;77.66
22647;BME280;11490;42.726;23.268;2023-10-13T07:45:37;95820.50;;;15.79;77.12
22647;BME280;11490;42.726;23.268;2023-10-13T07:51:03;95816.25;;;15.56;76.77
22647;BME280;11490;42.726;23.268;2023-10-13T07:53:32;95820.78;;;15.83;76.47
22647;BME280;11490;42.726;23.268;2023-10-13T07:56:03;95821.97;;;15.97;76.17
22647;BME280;11490;42.726;23.268;2023-10-13T07:58:34;95817.78;;;16.11;76.02
22647;BME280;11490;42.726;23.268;2023-10-13T08:01:00;95814.81;;;16.44;75.58
22647;BME280;11490;42.726;23.268;2023-10-13T08:03:42;95802.75;;;16.99;74.84
22647;BME280;11490;42.726;23.268;2023-10-13T08:06:14;95806.22;;;17.72;72.02
22647;BME280;11490;42.726;23.268;2023-10-13T08:08:41;95805.13;;;18.59;67.54
22647;BME280;11490;42.726;23.268;2023-10-13T08:11:11;95794.13;;;19.25;65.52
22647;BME280;11490;42.726;23.268;2023-10-13T08:13:41;95819.97;;;19.51;63.75
22647;BME280;11490;42.726;23.268;2023-10-13T08:16:14;95806.69;;;19.99;61.25
22647;BME280;11490;42.726;23.268;2023-10-13T08:18:49;95802.75;;;20.20;60.89
22647;BME280;11490;42.726;23.268;2023-10-13T08:21:18;95809.22;;;20.24;60.00
22647;BME280;11490;42.726;23.268;2023-10-13T08:23:57;95825.47;;;20.24;60.17
22647;BME280;11490;42.726;23.268;2023-10-13T08:26:28;95813.06;;;20.13;59.47
22647;BME280;11490;42.726;23.268;2023-10-13T08:29:16;95780.41;;;19.66;60.51
22647;BME280;11490;42.726;23.268;2023-10-13T08:31:49;95810.69;;;20.07;60.45
22647;BME280;11490;42.726;23.268;2023-10-13T08:34:35;95807.81;;;20.61;60.33
22647;BME280;11490;42.726;23.268;2023-10-13T08:37:10;95808.72;;;20.80;59.21
22647;BME280;11490;42.726;23.268;2023-10-13T08:39:56;95818.09;;;21.17;58.51
22647;BME280;11490;42.726;23.268;2023-10-13T08:45:10;95814.81;;;21.20;56.21
22647;BME280;11490;42.726;23.268;2023-10-13T08:47:52;95806.75;;;21.09;56.17
22647;BME280;11490;42.726;23.268;2023-10-13T08:50:50;95786.97;;;20.85;57.57
22647;BME280;11490;42.726;23.268;2023-10-13T08:53:20;95804.97;;;21.24;56.35
22647;BME280;11490;42.726;23.268;2023-10-13T08:56:08;95786.03;;;20.71;57.58
22647;BME280;11490;42.726;23.268;2023-10-13T08:58:45;95797.69;;;20.95;58.81
22647;BME280;11490;42.726;23.268;2023-10-13T09:01:34;95801.63;;;21.32;55.86
22647;BME280;11490;42.726;23.268;2023-10-13T09:04:13;95784.50;;;21.55;55.03
22647;BME280;11490;42.726;23.268;2023-10-13T09:06:56;95760.78;;;21.79;55.11
22647;BME280;11490;42.726;23.268;2023-10-13T09:09:28;95771.22;;;22.42;53.60
22647;BME280;11490;42.726;23.268;2023-10-13T09:12:22;95806.56;;;22.75;51.82
22647;BME280;11490;42.726;23.268;2023-10-13T09:15:06;95785.22;;;23.09;50.92
22647;BME280;11490;42.726;23.268;2023-10-13T09:17:45;95766.47;;;23.21;49.93
22647;BME280;11490;42.726;23.268;2023-10-13T09:20:38;95767.66;;;23.42;49.70
22647;BME280;11490;42.726;23.268;2023-10-13T09:23:10;95760.78;;;23.59;49.47
22647;BME280;11490;42.726;23.268;2023-10-13T09:25:39;95744.31;;;23.14;49.21
22647;BME280;11490;42.726;23.268;2023-10-13T09:28:19;95774.53;;;23.54;49.70
22647;BME280;11490;42.726;23.268;2023-10-13T09:30:48;95749.69;;;23.41;49.79
22647;BME280;11490;42.726;23.268;2023-10-13T09:33:19;95778.31;;;23.39;49.20
22647;BME280;11490;42.726;23.268;2023-10-13T09:35:54;95747.53;;;23.02;50.36
22647;BME280;11490;42.726;23.268;2023-10-13T09:38:19;95758.91;;;23.18;48.37
22647;BME280;11490;42.726;23.268;2023-10-13T09:40:46;95735.22;;;23.19;49.55
22647;BME280;11490;42.726;23.268;2023-10-13T09:43:19;95752.47;;;22.87;49.54
22647;BME280;11490;42.726;23.268;2023-10-13T09:45:48;95733.31;;;22.92;50.68
22647;BME280;11490;42.726;23.268;2023-10-13T09:48:44;95748.13;;;22.86;50.21
22647;BME280;11490;42.726;23.268;2023-10-13T09:51:14;95730.25;;;22.66;49.32
22647;BME280;11490;42.726;23.268;2023-10-13T09:53:48;95722.50;;;22.59;50.19
22647;BME280;11490;42.726;23.268;2023-10-13T09:56:22;95725.72;;;22.61;50.84
22647;BME280;11490;42.726;23.268;2023-10-13T09:59:14;95730.41;;;22.75;50.68
22647;BME280;11490;42.726;23.268;2023-10-13T10:01:43;95700.94;;;22.63;49.44
22647;BME280;11490;42.726;23.268;2023-10-13T10:04:17;95722.41;;;22.92;48.79
22647;BME280;11490;42.726;23.268;2023-10-13T10:09:17;95713.88;;;22.98;47.95
22647;BME280;11490;42.726;23.268;2023-10-13T10:11:57;95716.47;;;23.03;49.23
22647;BME280;11490;42.726;23.268;2023-10-13T10:14:56;95722.41;;;23.19;48.23
22647;BME280;11490;42.726;23.268;2023-10-13T10:17:27;95726.94;;;23.24;47.76
22647;BME280;11490;42.726;23.268;2023-10-13T10:19:57;95715.94;;;23.15;46.36
22647;BME280;11490;42.726;23.268;2023-10-13T10:22:30;95728.41;;;23.44;47.19
22647;BME280;11490;42.726;23.268;2023-10-13T10:25:00;95711.44;;;23.47;45.10
22647;BME280;11490;42.726;23.268;2023-10-13T10:27:28;95699.38;;;23.53;43.56
22647;BME280;11490;42.726;23.268;2023-10-13T10:29:55;95709.94;;;23.68;41.38
22647;BME280;11490;42.726;23.268;2023-10-13T10:32:31;95689.75;;;23.69;43.19
22647;BME280;11490;42.726;23.268;2023-10-13T10:35:10;95706.47;;;23.76;42.19
22647;BME280;11490;42.726;23.268;2023-10-13T10:37:46;95682.69;;;23.68;40.97
22647;BME280;11490;42.726;23.268;2023-10-13T10:40:15;95708.84;;;23.77;41.00
22647;BME280;11490;42.726;23.268;2023-10-13T10:43:12;95685.84;;;23.61;42.49
22647;BME280;11490;42.726;23.268;2023-10-13T10:45:46;95688.56;;;23.61;43.06
22647;BME280;11490;42.726;23.268;2023-10-13T10:48:12;95699.91;;;23.77;43.33
22647;BME280;11490;42.726;23.268;2023-10-13T10:50:51;95694.94;;;23.79;40.56
22647;BME280;11490;42.726;23.268;2023-10-13T10:53:22;95681.88;;;23.67;39.85
22647;BME280;11490;42.726;23.268;2023-10-13T10:55:48;95696.91;;;23.87;39.93
22647;BME280;11490;42.726;23.268;2023-10-13T10:58:13;95682.69;;;23.68;40.84
22647;BME280;11490;42.726;23.268;2023-10-13T11:01:06;95687.41;;;23.76;40.55
22647;BME280;11490;42.726;23.268;2023-10-13T11:04:13;95684.53;;;23.81;42.03
22647;BME280;11490;42.726;23.268;2023-10-13T11:06:45;95673.13;;;23.79;42.40
22647;BME280;11490;42.726;23.268;2023-10-13T11:09:12;95676.13;;;23.91;40.77
22647;BME280;11490;42.726;23.268;2023-10-13T11:11:47;95674.06;;;23.97;41.83
22647;BME280;11490;42.726;23.268;2023-10-13T11:14:25;95674.22;;;24.00;41.59
22647;BME280;11490;42.726;23.268;2023-10-13T11:16:53;95674.56;;;23.99;39.21
22647;BME280;11490;42.726;23.268;2023-10-13T11:19:36;95649.72;;;23.78;40.02
22647;BME280;11490;42.726;23.268;2023-10-13T11:24:43;95662.13;;;24.06;36.97
22647;BME280;11490;42.726;23.268;2023-10-13T11:27:17;95664.34;;;24.04;37.66
22647;BME280;11490;42.726;23.268;2023-10-13T11:29:46;95664.25;;;24.18;37.53
22647;BME280;11490;42.726;23.268;2023-10-13T11:32:18;95647.84;;;24.09;38.77
22647;BME280;11490;42.726;23.268;2023-10-13T11:34:46;95651.06;;;24.11;38.45
22647;BME280;11490;42.726;23.268;2023-10-13T11:37:17;95633.50;;;23.95;37.29
22647;BME280;11490;42.726;23.268;2023-10-13T11:40:04;95635.88;;;23.88;38.25
22647;BME280;11490;42.726;23.268;2023-10-13T11:42:37;95629.31;;;23.89;40.24
22647;BME280;11490;42.726;23.268;2023-10-13T11:45:09;95629.91;;;23.86;40.10
22647;BME280;11490;42.726;23.268;2023-10-13T11:47:53;95618.94;;;23.69;39.02
22647;BME280;11490;42.726;23.268;2023-10-13T11:50:25;95631.47;;;23.78;39.43
22647;BME280;11490;42.726;23.268;2023-10-13T11:53:00;95621.53;;;23.74;38.00
22647;BME280;11490;42.726;23.268;2023-10-13T11:55:25;95613.69;;;23.81;38.88
22647;BME280;11490;42.726;23.268;2023-10-13T11:57:51;95605.53;;;23.81;38.63
22647;BME280;11490;42.726;23.268;2023-10-13T12:00:17;95611.59;;;23.78;39.79
22647;BME280;11490;42.726;23.268;2023-10-13T12:03:11;95613.34;;;23.74;39.84
22647;BME280;11490;42.726;23.268;2023-10-13T12:05:55;95611.47;;;23.83;39.97
22647;BME280;11490;42.726;23.268;2023-10-13T12:08:39;95607.25;;;23.99;38.81
22647;BME280;11490;42.726;23.268;2023-10-13T12:11:15;95621.91;;;24.12;38.43
22647;BME280;11490;42.726;23.268;2023-10-13T12:13:58;95590.91;;;23.99;39.10
22647;BME280;11490;42.726;23.268;2023-10-13T12:16:36;95619.59;;;24.28;37.79
22647;BME280;11490;42.726;23.268;2023-10-13T12:19:02;95600.66;;;24.23;38.04
22647;BME280;11490;42.726;23.268;2023-10-13T12:21:27;95601.97;;;24.34;37.58
22647;BME280;11490;42.726;23.268;2023-10-13T12:23:54;95594.19;;;24.18;39.46
22647;BME280;11490;42.726;23.268;2023-10-13T12:26:20;95594.56;;;24.26;37.96
22647;BME280;11490;42.726;23.268;2023-10-13T12:28:46;95613.91;;;24.55;36.33
22647;BME280;11490;42.726;23.268;2023-10-13T12:31:17;95609.22;;;24.38;37.92
22647;BME280;11490;42.726;23.268;2023-10-13T12:33:51;95603.44;;;24.40;36.44
22647;BME280;11490;42.726;23.268;2023-10-13T12:36:17;95599.47;;;24.46;36.60
22647;BME280;11490;42.726;23.268;2023-10-13T12:38:45;95597.78;;;24.28;38.18
22647;BME280;11490;42.726;23.268;2023-10-13T12:41:20;95598.03;;;24.17;37.66
22647;BME280;11490;42.726;23.268;2023-10-13T12:44:05;95596.41;;;24.16;38.31
22647;BME280;11490;42.726;23.268;2023-10-13T12:46:49;95600.53;;;24.05;39.24
22647;BME280;11490;42.726;23.268;2023-10-13T12:49:33;95595.34;;;23.95;40.32
22647;BME280;11490;42.726;23.268;2023-10-13T12:52:12;95599.91;;;24.08;39.00
22647;BME280;11490;42.726;23.268;2023-10-13T12:54:48;95584.50;;;24.35;37.96
22647;BME280;11490;42.726;23.268;2023-10-13T12:57:19;95586.91;;;24.36;37.18
22647;BME280;11490;42.726;23.268;2023-10-13T12:59:48;95590.38;;;24.68;36.50
22647;BME280;11490;42.726;23.268;2023-10-13T13:02:14;95597.59;;;24.72;36.43
22647;BME280;11490;42.726;23.268;2023-10-13T13:04:41;95575.41;;;24.57;37.28
22647;BME280;11490;42.726;23.268;2023-10-13T13:07:10;95582.75;;;24.39;37.99
22647;BME280;11490;42.726;23.268;2023-10-13T13:09:42;95573.25;;;24.28;37.45
22647;BME280;11490;42.726;23.268;2023-10-13T13:12:08;95576.31;;;24.35;37.36
22647;BME280;11490;42.726;23.268;2023-10-13T13:14:38;95576.59;;;24.25;38.67
22647;BME280;11490;42.726;23.268;2023-10-13T13:17:05;95582.88;;;24.34;38.29
22647;BME280;11490;42.726;23.268;2023-10-13T13:19:35;95569.13;;;24.39;37.43
22647;BME280;11490;42.726;23.268;2023-10-13T13:22:09;95578.38;;;24.29;39.17
22647;BME280;11490;42.726;23.268;2023-10-13T13:24:39;95583.81;;;24.21;37.25
22647;BME280;11490;42.726;23.268;2023-10-13T13:27:12;95579.09;;;24.12;38.01
22647;BME280;11490;42.726;23.268;2023-10-13T13:29:45;95590.00;;;24.12;38.77
22647;BME280;11490;42.726;23.268;2023-10-13T13:32:11;95570.41;;;24.10;39.20
22647;BME280;11490;42.726;23.268;2023-10-13T13:35:03;95572.38;;;24.18;37.81
22647;BME280;11490;42.726;23.268;2023-10-13T13:37:32;95581.06;;;24.21;37.13
22647;BME280;11490;42.726;23.268;2023-10-13T13:39:58;95579.44;;;24.20;37.53
22647;BME280;11490;42.726;23.268;2023-10-13T13:42:39;95579.09;;;24.12;37.52
22647;BME280;11490;42.726;23.268;2023-10-13T13:45:11;95576.59;;;24.25;36.81
22647;BME280;11490;42.726;23.268;2023-10-13T13:47:37;95583.03;;;24.29;37.46
22647;BME280;11490;42.726;23.268;2023-10-13T13:50:02;95578.38;;;24.29;37.15
22647;BME280;11490;42.726;23.268;2023-10-13T13:52:32;95563.66;;;24.39;35.95
22647;BME280;11490;42.726;23.268;2023-10-13T13:55:11;95570.66;;;24.23;37.49
22647;BME280;11490;42.726;23.268;2023-10-13T13:57:45;95576.84;;;24.14;37.69
22647;BME280;11490;42.726;23.268;2023-10-13T14:00:12;95578.09;;;24.08;38.07
22647;BME280;11490;42.726;23.268;2023-10-13T14:02:42;95572.44;;;23.96;38.35
22647;BME280;11490;42.726;23.268;2023-10-13T14:05:14;95577.75;;;24.01;37.23
22647;BME280;11490;42.726;23.268;2023-10-13T14:07:44;95583.75;;;23.81;37.67
22647;BME280;11490;42.726;23.268;2023-10-13T14:10:15;95576.50;;;24.07;36.37
22647;BME280;11490;42.726;23.268;2023-10-13T14:12:57;95579.66;;;23.92;37.39
22647;BME280;11490;42.726;23.268;2023-10-13T14:15:32;95566.13;;;23.87;38.48
22647;BME280;11490;42.726;23.268;2023-10-13T14:18:05;95575.78;;;23.93;37.44
22647;BME280;11490;42.726;23.268;2023-10-13T14:20:32;95574.25;;;24.09;36.34
22647;BME280;11490;42.726;23.268;2023-10-13T14:22:57;95576.22;;;24.17;36.17
22647;BME280;11490;42.726;23.268;2023-10-13T14:25:23;95565.97;;;24.14;35.72
22647;BME280;11490;42.726;23.268;2023-10-13T14:27:53;95557.84;;;24.01;36.96
22647;BME280;11490;42.726;23.268;2023-10-13T14:30:19;95574.56;;;23.99;37.35
22647;BME280;11490;42.726;23.268;2023-10-13T14:32:45;95579.34;;;24.02;37.05
22647;BME280;11490;42.726;23.268;2023-10-13T14:35:11;95569.72;;;23.96;37.26
22647;BME280;11490;42.726;23.268;2023-10-13T14:37:40;95588.94;;;23.91;38.53
22647;BME280;11490;42.726;23.268;2023-10-13T14:40:07;95572.09;;;23.89;37.75
22647;BME280;11490;42.726;23.268;2023-10-13T14:42:38;95577.47;;;23.81;38.32
22647;BME280;11490;42.726;23.268;2023-10-13T14:45:06;95575.34;;;23.69;38.84
22647;BME280;11490;42.726;23.268;2023-10-13T14:47:41;95569.19;;;23.63;38.86
22647;BME280;11490;42.726;23.268;2023-10-13T14:50:06;95569.75;;;23.74;38.33
22647;BME280;11490;42.726;23.268;2023-10-13T14:52:33;95538.28;;;23.37;39.73
22647;BME280;11490;42.726;23.268;2023-10-13T14:54:59;95571.19;;;23.49;39.58
22647;BME280;11490;42.726;23.268;2023-10-13T14:57:24;95574.72;;;23.50;39.62
22647;BME280;11490;42.726;23.268;2023-10-13T14:59:54;95565.97;;;23.39;39.97
22647;BME280;11490;42.726;23.268;2023-10-13T15:02:20;95569.41;;;23.45;40.32
22647;BME280;11490;42.726;23.268;2023-10-13T15:04:47;95568.53;;;23.35;40.64
22647;BME280;11490;42.726;23.268;2023-10-13T15:07:16;95579.06;;;23.51;40.86
22647;BME280;11490;42.726;23.268;2023-10-13T15:09:43;95574.47;;;23.37;41.55
22647;BME280;11490;42.726;23.268;2023-10-13T15:12:10;95574.47;;;23.37;41.24
22647;BME280;11490;42.726;23.268;2023-10-13T15:14:37;95577.88;;;23.21;41.50
22647;BME280;11490;42.726;23.268;2023-10-13T15:17:04;95578.75;;;23.16;42.08
22647;BME280;11490;42.726;23.268;2023-10-13T15:19:31;95582.22;;;23.08;42.54
22647;BME280;11490;42.726;23.268;2023-10-13T15:22:02;95580.94;;;23.06;42.18
22647;BME280;11490;42.726;23.268;2023-10-13T15:24:27;95590.03;;;23.23;41.24
22647;BME280;11490;42.726;23.268;2023-10-13T15:26:53;95571.75;;;23.01;41.94
22647;BME280;11490;42.726;23.268;2023-10-13T15:29:28;95591.53;;;23.07;41.54
22647;BME280;11490;42.726;23.268;2023-10-13T15:32:00;95578.75;;;22.94;42.22
22647;BME280;11490;42.726;23.268;2023-10-13T15:34:27;95584.09;;;22.85;43.51
22647;BME280;11490;42.726;23.268;2023-10-13T15:36:53;95590.38;;;22.58;45.62
22647;BME280;11490;42.726;23.268;2023-10-13T15:39:23;95590.47;;;22.53;45.74
22647;BME280;11490;42.726;23.268;2023-10-13T15:41:51;95575.50;;;22.29;47.14
22647;BME280;11490;42.726;23.268;2023-10-13T15:44:24;95596.03;;;22.21;47.01
22647;BME280;11490;42.726;23.268;2023-10-13T15:46:54;95589.88;;;22.02;47.46
22647;BME280;11490;42.726;23.268;2023-10-13T15:49:21;95594.16;;;21.89;48.48
22647;BME280;11490;42.726;23.268;2023-10-13T15:51:47;95591.84;;;21.82;48.88
22647;BME280;11490;42.726;23.268;2023-10-13T15:54:13;95595.50;;;21.59;49.99
22647;BME280;11490;42.726;23.268;2023-10-13T15:56:42;95587.94;;;21.24;48.91
22647;BME280;11490;42.726;23.268;2023-10-13T15:59:11;95584.19;;;21.01;50.84
22647;BME280;11490;42.726;23.268;2023-10-13T16:01:37;95599.56;;;21.43;47.41
22647;BME280;11490;42.726;23.268;2023-10-13T16:04:05;95591.06;;;21.31;47.27
22647;BME280;11490;42.726;23.268;2023-10-13T16:06:43;95582.88;;;21.17;49.40
22647;BME280;11490;42.726;23.268;2023-10-13T16:09:13;95611.44;;;21.09;51.21
22647;BME280;11490;42.726;23.268;2023-10-13T16:11:43;95576.31;;;20.62;51.08
22647;BME280;11490;42.726;23.268;2023-10-13T16:14:12;95609.75;;;20.76;51.22
22647;BME280;11490;42.726;23.268;2023-10-13T16:16:43;95595.09;;;20.77;51.61
22647;BME280;11490;42.726;23.268;2023-10-13T16:19:21;95591.66;;;20.71;51.72
22647;BME280;11490;42.726;23.268;2023-10-13T16:22:19;95563.34;;;20.40;53.43
22647;BME280;11490;42.726;23.268;2023-10-13T16:25:04;95567.22;;;20.29;53.50
22647;BME280;11490;42.726;23.268;2023-10-13T16:27:47;95609.94;;;20.42;53.83
22647;BME280;11490;42.726;23.268;2023-10-13T16:30:15;95574.16;;;20.16;54.55
22647;BME280;11490;42.726;23.268;2023-10-13T16:33:15;95642.66;;;20.46;54.75
22647;BME280;11490;42.726;23.268;2023-10-13T16:35:43;95578.09;;;19.81;56.02
22647;BME280;11490;42.726;23.268;2023-10-13T16:38:22;95627.59;;;20.11;55.97
22647;BME280;11490;42.726;23.268;2023-10-13T16:41:04;95630.66;;;20.04;56.08
22647;BME280;11490;42.726;23.268;2023-10-13T16:46:43;95597.31;;;19.80;56.74
22647;BME280;11490;42.726;23.268;2023-10-13T16:49:29;95637.88;;;19.85;57.54
22647;BME280;11490;42.726;23.268;2023-10-13T16:52:15;95639.56;;;19.76;58.31
22647;BME280;11490;42.726;23.268;2023-10-13T16:55:06;95591.69;;;19.42;58.33
22647;BME280;11490;42.726;23.268;2023-10-13T16:57:51;95562.44;;;19.44;58.59
22647;BME280;11490;42.726;23.268;2023-10-13T17:00:25;95632.38;;;19.90;58.43
22647;BME280;11490;42.726;23.268;2023-10-13T17:03:09;95564.09;;;19.40;56.68
22647;BME280;11490;42.726;23.268;2023-10-13T17:05:44;95597.50;;;19.59;58.06
22647;BME280;11490;42.726;23.268;2023-10-13T17:08:15;95566.81;;;19.40;58.48
22647;BME280;11490;42.726;23.268;2023-10-13T17:10:41;95613.66;;;19.70;58.45
22647;BME280;11490;42.726;23.268;2023-10-13T17:13:09;95595.31;;;19.62;57.63
22647;BME280;11490;42.726;23.268;2023-10-13T17:15:37;95601.41;;;19.43;58.34
22647;BME280;11490;42.726;23.268;2023-10-13T17:18:06;95624.13;;;19.47;59.68
22647;BME280;11490;42.726;23.268;2023-10-13T17:20:44;95611.72;;;19.41;59.45
22647;BME280;11490;42.726;23.268;2023-10-13T17:23:20;95632.75;;;19.44;59.35
22647;BME280;11490;42.726;23.268;2023-10-13T17:26:04;95624.88;;;19.19;59.86
22647;BME280;11490;42.726;23.268;2023-10-13T17:28:41;95657.03;;;19.59;59.51
22647;BME280;11490;42.726;23.268;2023-10-13T17:31:07;95650.63;;;19.45;59.20
22647;BME280;11490;42.726;23.268;2023-10-13T17:33:34;95647.97;;;19.40;59.28
22647;BME280;11490;42.726;23.268;2023-10-13T17:36:07;95611.34;;;18.80;61.09
22647;BME280;11490;42.726;23.268;2023-10-13T17:38:35;95659.50;;;19.17;60.58
22647;BME280;11490;42.726;23.268;2023-10-13T17:41:10;95663.91;;;18.98;60.95
22647;BME280;11490;42.726;23.268;2023-10-13T17:43:38;95588.03;;;18.30;62.21
22647;BME280;11490;42.726;23.268;2023-10-13T17:46:12;95663.25;;;18.72;63.04
22647;BME280;11490;42.726;23.268;2023-10-13T17:48:41;95633.66;;;18.31;63.47
22647;BME280;11490;42.726;23.268;2023-10-13T17:51:10;95622.59;;;18.28;62.34
22647;BME280;11490;42.726;23.268;2023-10-13T17:53:47;95587.50;;;18.28;63.23
22647;BME280;11490;42.726;23.268;2023-10-13T17:56:35;95673.63;;;18.29;64.59
22647;BME280;11490;42.726;23.268;2023-10-13T17:59:20;95602.72;;;18.03;63.61
22647;BME280;11490;42.726;23.268;2023-10-13T18:01:57;95629.16;;;18.12;62.93
22647;BME280;11490;42.726;23.268;2023-10-13T18:04:33;95642.66;;;18.12;63.91
22647;BME280;11490;42.726;23.268;2023-10-13T18:06:59;95635.84;;;18.24;64.05
22647;BME280;11490;42.726;23.268;2023-10-13T18:09:30;95629.19;;;17.81;65.63
22647;BME280;11490;42.726;23.268;2023-10-13T18:12:00;95594.13;;;17.81;65.01
22647;BME280;11490;42.726;23.268;2023-10-13T18:14:26;95645.94;;;17.93;67.05
22647;BME280;11490;42.726;23.268;2023-10-13T18:16:57;95630.84;;;17.87;66.44
22647;BME280;11490;42.726;23.268;2023-10-13T18:26:04;95691.81;;;17.83;68.41
22647;BME280;11490;42.726;23.268;2023-10-13T18:28:51;95633.53;;;17.77;67.75
22647;BME280;11490;42.726;23.268;2023-10-13T18:31:24;95645.94;;;17.73;68.20
22647;BME280;11490;42.726;23.268;2023-10-13T18:34:04;95608.72;;;17.50;67.66
22647;BME280;11490;42.726;23.268;2023-10-13T18:36:56;95672.38;;;17.76;68.36
22647;BME280;11490;42.726;23.268;2023-10-13T18:39:51;95623.28;;;17.54;67.95
22647;BME280;11490;42.726;23.268;2023-10-13T18:42:32;95622.22;;;17.50;68.07
22647;BME280;11490;42.726;23.268;2023-10-13T18:45:01;95652.44;;;17.67;67.82
22647;BME280;11490;42.726;23.268;2023-10-13T18:47:29;95604.41;;;17.23;68.90